This is the latest recevied weather packets stored in our database for station/object PY3MO-11. If no packets are shown the sender has not sent any weather packets the latest 10 day(s).
| Time | Temp. | Humidity | Pressure | Rain* | Wind** | Luminosity | Snow |
|---|---|---|---|---|---|---|---|
| 1777735450 | 19.44° C | 80% | 1017.5 hPa | 0 mm | - | - | - |
| 1777735149 | 18.89° C | 80% | 1017.4 hPa | 0 mm | - | - | - |
| 1777734851 | 18.89° C | 81% | 1017.3 hPa | 0 mm | - | - | - |
| 1777734551 | 18.89° C | 85% | 1017.3 hPa | 0 mm | - | - | - |
| 1777734251 | 18.33° C | 90% | 1017.6 hPa | 0 mm | - | - | - |
| 1777733951 | 17.78° C | 95% | 1017.5 hPa | 0 mm | - | - | - |
| 1777733651 | 17.78° C | 97% | 1017.2 hPa | 0 mm | - | - | - |
| 1777733351 | 17.22° C | 99% | 1017.5 hPa | 0 mm | - | - | - |
| 1777733050 | 16.67° C | 99% | 1017.6 hPa | 0 mm | - | - | - |
| 1777732750 | 16.67° C | 99% | 1017.7 hPa | 0 mm | - | - | - |
| 1777732450 | 16.67° C | 99% | 1017.8 hPa | 0 mm | - | - | - |
| 1777732150 | 16.67° C | 99% | 1017.8 hPa | 0 mm | - | - | - |
| 1777731850 | 16.67° C | 99% | 1017.8 hPa | 0 mm | - | - | - |
| 1777731550 | 16.67° C | 99% | 1018 hPa | 0 mm | - | - | - |
| 1777731249 | 16.67° C | 99% | 1017.8 hPa | 0 mm | - | - | - |
| 1777730951 | 16.67° C | 99% | 1018 hPa | 0 mm | - | - | - |
| 1777730651 | 16.67° C | 99% | 1018.2 hPa | 0 mm | - | - | - |
| 1777730351 | 16.67° C | 99% | 1018.1 hPa | 0 mm | - | - | - |
| 1777730051 | 16.67° C | 99% | 1018 hPa | 0 mm | - | - | - |
| 1777729751 | 16.67° C | 99% | 1017.9 hPa | 0 mm | - | - | - |
| 1777729451 | 16.67° C | 99% | 1018 hPa | 0 mm | - | - | - |
| 1777729150 | 16.67° C | 99% | 1017.8 hPa | 0 mm | - | - | - |
| 1777728852 | 16.67° C | 99% | 1017.8 hPa | 0 mm | - | - | - |
| 1777690243 | 15° C | 99% | 1015.9 hPa | 7.11 mm | - | - | - |
| 1777680941 | 16.11° C | 99% | 1015.7 hPa | 0 mm | - | - | - |
* Rain latest hour (hover to see other rain measurements)
** Current wind speed in m/s (hover to see current wind gust speed)